METAR Data
IDs: Format: Raw Decoded Include TAF

Data at: 1443 UTC 12 Dec 2018

PALH 121439Z 19004KT 2 1/2SM -SN OVC036 M04/M07 A2902 RMK AO2 SNB1355 P0000 T10391067
PALH 121353Z 21008KT 10SM OVC042 M03/M08 A2900 RMK AO2 SNE17 SLP822 P0000 T10331078
PALH 121257Z 20005KT 3SM -SN BR OVC030 M03/M06 A2899 RMK AO2 P0000 T10331056
PALH 121253Z 20006KT 2SM -SN BR OVC025 M03/M06 A2899 RMK AO2 SLP816 P0001 T10331056
PALH 121241Z 20008KT 2 1/2SM -SN BR OVC024 M03/M06 A2898 RMK AO2 P0001 T10331056
PALH 121153Z 20009KT 1 1/4SM -SN BR OVC023 M03/M06 A2897 RMK AO2 SLP811 P0001 60001 70005 T10331056 11022 21033 51012
PALH 121148Z 20005KT 1 1/4SM -SN BR OVC023 M03/M06 A2897 RMK AO2 P0001
PALH 121141Z 20008KT 2SM -SN BR OVC029 M03/M06 A2897 RMK AO2 P0000 T10331056
PALH 121053Z 20006KT 4SM -SN BR OVC060 M03/M06 A2896 RMK AO2 SNB27 SLP806 P0000 T10331056
PALH 120953Z 21008KT 10SM SCT022 M03/M07 A2894 RMK AO2 SNE0856 SLP798 P0000 T10281067
PALH 120903Z 21009G16KT 9SM FEW022 OVC037 M02/M07 A2892 RMK AO2 SNE0856 P0000 T10221067
PALH 120853Z 21009G16KT 6SM -SN SCT022 OVC027 M02/M07 A2892 RMK AO2 SLP793 P0000 60000 T10221067 400061044 53012
PALH 120821Z 21010KT 4SM -SN SCT014 OVC027 M03/M06 A2892 RMK AO2 P0000 T10281056
PALH 120810Z 20010G18KT 3SM -SN BR BKN014 OVC023 M03/M05 A2891 RMK AO2 P0000 T10281050
PALH 120753Z 21010G16KT 2SM -SN BR BKN015 OVC022 M03/M05 A2890 RMK AO2 SLP787 P0000 T10281050
PALH 120749Z 21012G18KT 1 3/4SM -SN BR BKN015 BKN020 OVC026 M03/M05 A2890 RMK AO2 P0000
PALH 120742Z 20011G18KT 2SM -SN BR BKN015 BKN021 OVC026 M03/M05 A2890 RMK AO2 P0000 T10281050
PALH 120653Z 20012G16KT 6SM -SN BKN017 OVC026 M02/M06 A2888 RMK AO2 SNB30 SLP781 P0000 T10221056
PALH 120553Z 20009G18KT 10SM BKN016 OVC038 M02/M06 A2886 RMK AO2 SNE27 SLP774 P0000 60002 T10221056 10000 21022 51013
PALH 120548Z 20011G18KT 10SM BKN016 OVC038 M02/M06 A2886 RMK AO2 SNE27 P0000
PALH 120530Z 21010KT 7SM BKN014 BKN025 OVC055 M02/M05 A2886 RMK AO2 SNE27 P0000 T10221050
PALH 120453Z 20014G24KT 4SM -SN BR OVC016 M02/M04 A2884 RMK AO2 SLP767 P0000 T10221044
PALH 120446Z 20012G20KT 3SM -SN BR OVC016 M02/M04 A2884 RMK AO2 P0000 T10221044
PALH 120439Z 20014G23KT 2 1/2SM -SN BR OVC016 M02/M04 A2884 RMK AO2 P0000 T10221044
PALH 120423Z 20016G25KT 1 3/4SM -SN SCT016 OVC025 M02/M05 A2883 RMK AO2 P0000 T10221050
PALH 120407Z 20012G22KT 2 1/2SM -SN SCT016 BKN035 OVC046 M02/M05 A2883 RMK AO2 VIS 2 1/2V3 P0000 T10221050
PALH 120353Z 21009G21KT 2SM -SN FEW016 OVC021 M02/M05 A2883 RMK AO2 SLP761 P0001 T10171050
PALH 120332Z 21012G19KT 1SM -SN BR VV014 M02/M04 A2882 RMK AO2 P0001 T10221044
PALH 120314Z 21010G21KT 1SM -SN BKN023 OVC044 M02/M05 A2882 RMK AO2 P0000 T10171050
PALH 120302Z 21014G20KT 1 1/2SM -SN OVC043 M02/M05 A2881 RMK AO2 P0000 T10171050
PALH 120253Z 22012G21KT 2SM -SN OVC044 M02/M04 A2881 RMK AO2 SNB34 SLP755 P0001 60001 T10171044 52021
PALH 120153Z 20011G20KT 10SM OVC041 M01/M04 A2879 RMK AO2 SNE39 SLP748 P0000 T10061044
PALH 120133Z 21012G19KT 3SM -SN SCT026 OVC041 M01/M04 A2878 RMK AO2 P0000 T10111039
PALH 120127Z 21010G19KT 1 1/4SM -SN BKN024 OVC041 M01/M04 A2878 RMK AO2 P0000 T10111039
PALH 120120Z 21012G23KT 1 3/4SM -SN BKN030 OVC041 M01/M04 A2877 RMK AO2 P0000 T10111039
PALH 120102Z 21012G18KT 3SM -SN BR OVC036 M01/M03 A2877 RMK AO2 P0000 T10111033
PALH 120053Z 20009G16KT 1 1/4SM -SN BR OVC038 M01/M03 A2876 RMK AO2 UPE00SNB44 SLP741 P0000 T10061028
PALH 120050Z 20009G18KT 1 3/4SM -SN BR OVC040 M01/M03 A2876 RMK AO2 UPE00SNB44 P0000
PALH 112353Z 21008G17KT 10SM UP FEW018 OVC035 00/M03 A2874 RMK AO2 RAB42E53UPB43SNB2254E09 SLP734 P0000 60000 T00001028 10006 21017 51018
PALH 112253Z 00000KT 8SM SCT025 OVC033 M01/M02 A2873 RMK AO2 SLP729 T10061022
PALH 112233Z 00000KT 10SM SCT025 OVC034 M01/M02 A2872 RMK AO2 T10111022
PALH 112204Z 00000KT 10SM BKN022 OVC035 M01/M03 A2871 RMK AO2 T10111028
PALH 112153Z 00000KT 10SM SCT024 BKN035 OVC060 M01/M02 A2871 RMK AO2 SLP723 T10111022
PALH 112053Z 13003KT 10SM OVC050 M01/M02 A2869 RMK AO2 SNE05 SLP716 P0000 60000 T10061022 51019
PALH 111953Z 18005KT 6SM -SN BR OVC060 M01/M02 A2867 RMK AO2 SLP711 P0000 T10111022
PALH 111853Z 18007KT 6SM -SN BR SCT042 BKN050 OVC055 M01/M03 A2866 RMK AO2 SLP706 P0000 T10111028
PALH 111753Z 18004KT 8SM -SN FEW049 OVC060 M02/M03 A2863 RMK AO2 SNE22B45 SLP697 P0000 60002 T10171028 11017 21028 51019
PALH 111653Z 17003KT 2SM -SN BR OVC026 M02/M03 A2862 RMK SFC VIS 3 SLP691 P0001 T10171033 VIA AUTODIAL
PALH 111614Z 18006KT 2SM -SN BR OVC023 M02/M04 A2861 RMK P0000 T10221039 VIA AUTODIAL
PALH 111606Z 17005KT 1 3/4SM -SN BR OVC023 M02/M04 A2860 RMK TWR VIS 2 P0000 T10221039 VIA AUTODIAL
PALH 111553Z 18006KT 2SM -SN BR OVC023 M02/M04 A2860 RMK SLP686 P0001 T10221039 VIA AUTODIAL
PALH 111504Z 17003KT 1 1/2SM -SN BR OVC027 M02/M04 A2858 RMK TWR VIS 2 P0000 T10221039 VIA AUTODIAL
PALH 111453Z 16003KT 2SM -SN BR BKN040 OVC060 M02/M04 A2858 RMK SFC VIS 2 1/2 SLP678 P0000 60000 T10221039 53019 VIA AUTODIAL
PALH 111418Z 20005KT 2SM -SN BR BKN041 OVC049 M02/M04 A2857 RMK SFC VIS 4 P0000 T10221044 VIA AUTODIAL
PALH 111353Z 20004KT 4SM -SN BR OVC046 M03/M04 A2856 RMK SLP671 P0000 T10281044 VIA AUTODIAL
PALH 111320Z 18004KT 3SM -SN BR OVC042 M03/M04 A2854 RMK TWR VIS 4 P0000 T10281044 VIA AUTODIAL
PALH 111305Z VRB05KT 2SM -SN BR OVC032 M03/M04 A2854 RMK SFC VIS 3 P0000 T10281044 VIA AUTODIAL
PALH 111253Z 16005KT 2SM -SN BR OVC026 M03/M05 A2854 RMK SFC VIS 2 1/2 SNB29 SLP664 P0000 T10281050 VIA AUTODIAL
PALH 111244Z 17004KT 2SM -SN OVC028 M03/M06 A2854 RMK SFC VIS 3 SNB29 P0000 T10281056 VIA AUTODIAL
PALH 111153Z 18005KT 10SM OVC060 M03/M07 A2852 RMK SLP660 T10281067 11028 21044 55003 VIA AUTODIAL
PALH 111053Z 21003KT 10SM OVC095 M04/M07 A2852 RMK SLP659 T10391067 VIA AUTODIAL
PALH 110953Z 18004KT 10SM OVC095 M04/M07 A2852 RMK SLP658 T10441067 VIA AUTODIAL
PALH 110853Z 17003KT 10SM BKN110 M04/M07 A2853 RMK SLP663 T10441067 410281056 56025 VIA AUTODIAL
PALH 110753Z 10005KT 10SM OVC110 M04/M07 A2855 RMK SLP669 T10441072 VIA AUTODIAL
PALH 110653Z 04005KT 10SM OVC110 M03/M07 A2857 RMK SLP677 T10281067 VIA AUTODIAL
PALH 110553Z 04006KT 10SM OVC100 M03/M07 A2861 RMK SLP687 T10331067 11033 21044 56035 VIA AUTODIAL
PALH 110453Z 01007KT 10SM CLR M03/M07 A2863 RMK SLP695 T10331072 VIA AUTODIAL
PALH 110353Z 02007KT 10SM CLR M04/M07 A2866 RMK SLP706 T10391072 VIA AUTODIAL
PALH 110253Z 03006KT 10SM FEW110 M04/M07 A2871 RMK SLP722 T10391072 56044 VIA AUTODIAL